createdAt,value
2022-09-18T00:00:17.993Z,82.73
2022-09-18T00:02:19.543Z,83.30
2022-09-18T00:04:21.021Z,83.86
2022-09-18T00:06:24.938Z,83.62
2022-09-18T00:08:26.362Z,83.90
2022-09-18T00:10:27.837Z,84.01
2022-09-18T00:12:29.260Z,84.14
2022-09-18T00:14:30.755Z,84.11
2022-09-18T00:16:32.278Z,84.29
2022-09-18T00:18:33.778Z,84.15
2022-09-18T00:20:36.285Z,83.85
2022-09-18T00:22:37.795Z,84.38
2022-09-18T00:24:39.324Z,83.91
2022-09-18T00:26:40.845Z,84.71
2022-09-18T00:28:42.304Z,84.19
2022-09-18T00:30:43.724Z,84.65
2022-09-18T00:32:45.192Z,85.05
2022-09-18T00:34:46.613Z,84.23
2022-09-18T00:36:48.197Z,84.46
2022-09-18T00:38:50.349Z,84.77
2022-09-18T00:40:51.769Z,84.85
2022-09-18T00:42:53.267Z,84.89
2022-09-18T00:44:54.730Z,84.48
2022-09-18T00:47:01.353Z,84.73
2022-09-18T00:49:10.647Z,84.57
2022-09-18T00:51:14.059Z,84.88
2022-09-18T00:53:15.590Z,84.37
2022-09-18T00:55:22.343Z,84.05
2022-09-18T00:57:29.003Z,84.22
2022-09-18T00:59:34.746Z,84.10
2022-09-18T01:01:36.260Z,83.98
2022-09-18T01:03:37.802Z,83.72
2022-09-18T01:06:10.572Z,83.80
2022-09-18T01:08:44.886Z,84.73
2022-09-18T01:11:27.492Z,84.37
2022-09-18T01:13:43.446Z,84.95
2022-09-18T01:15:44.860Z,85.33
2022-09-18T01:18:19.140Z,85.03
2022-09-18T01:20:38.765Z,84.67
2022-09-18T01:22:58.917Z,84.29
2022-09-18T01:25:18.636Z,85.12
2022-09-18T01:27:33.315Z,84.79
2022-09-18T01:29:42.709Z,85.18
2022-09-18T01:31:46.797Z,84.43
2022-09-18T01:34:18.067Z,85.14
2022-09-18T01:36:24.544Z,85.00
2022-09-18T01:38:38.394Z,84.81
2022-09-18T01:40:45.984Z,84.91
2022-09-18T01:42:49.706Z,85.37
2022-09-18T01:44:54.578Z,84.57
2022-09-18T01:46:59.090Z,84.24
2022-09-18T01:49:09.121Z,84.35
2022-09-18T01:51:20.599Z,84.53
2022-09-18T01:53:30.263Z,84.91
2022-09-18T01:55:34.353Z,84.97
2022-09-18T01:58:03.492Z,85.05
2022-09-18T02:00:09.013Z,84.81
2022-09-18T02:02:21.104Z,85.29
2022-09-18T02:04:30.707Z,84.62
2022-09-18T02:06:44.489Z,85.22
2022-09-18T02:08:53.225Z,85.51
2022-09-18T02:11:15.178Z,85.67
2022-09-18T02:13:22.506Z,86.24
2022-09-18T02:15:28.749Z,85.94
2022-09-18T02:17:37.762Z,85.85
2022-09-18T02:19:46.406Z,86.26
2022-09-18T02:21:51.040Z,86.72
2022-09-18T02:23:56.010Z,87.06
2022-09-18T02:26:04.357Z,87.24
2022-09-18T02:28:08.371Z,87.31
2022-09-18T02:30:10.458Z,87.26
2022-09-18T02:32:13.085Z,87.49
2022-09-18T02:34:14.561Z,87.75
2022-09-18T02:36:45.482Z,87.42
2022-09-18T02:39:08.272Z,87.98
2022-09-18T02:41:54.743Z,88.41
2022-09-18T02:44:08.869Z,88.86
2022-09-18T02:46:36.478Z,88.94
2022-09-18T02:48:52.060Z,88.38
2022-09-18T02:51:02.188Z,88.73
2022-09-18T02:53:28.042Z,88.84
2022-09-18T02:55:56.235Z,88.53
2022-09-18T02:58:05.277Z,89.21
2022-09-18T03:00:11.511Z,89.15
2022-09-18T03:02:13.422Z,89.68
2022-09-18T03:04:21.228Z,89.69
2022-09-18T03:06:22.924Z,89.83
2022-09-18T03:08:25.204Z,89.30
2022-09-18T03:10:26.627Z,89.66
2022-09-18T03:12:28.089Z,89.36
2022-09-18T03:14:29.582Z,89.56
2022-09-18T03:16:31.110Z,90.19
2022-09-18T03:18:32.623Z,90.26
2022-09-18T03:20:34.056Z,90.18
2022-09-18T03:22:35.796Z,90.06
2022-09-18T03:24:37.270Z,90.21
2022-09-18T03:26:38.689Z,90.25
2022-09-18T03:28:40.116Z,90.20
2022-09-18T03:30:41.754Z,90.38
2022-09-18T03:32:43.169Z,90.49
2022-09-18T03:34:44.896Z,91.29
2022-09-18T03:36:47.134Z,90.47
2022-09-18T03:38:48.557Z,91.44
2022-09-18T03:40:50.014Z,91.10
2022-09-18T03:42:51.521Z,91.37
2022-09-18T03:44:53.012Z,90.43
2022-09-18T03:46:54.529Z,90.50
2022-09-18T03:48:56.094Z,90.52
2022-09-18T03:50:57.614Z,90.50
2022-09-18T03:52:59.029Z,90.66
2022-09-18T03:55:00.519Z,89.93
2022-09-18T03:57:01.939Z,90.28
2022-09-18T03:59:03.421Z,90.13
2022-09-18T04:01:05.246Z,89.94
2022-09-18T04:03:06.747Z,89.87
2022-09-18T04:05:08.664Z,89.50
2022-09-18T04:07:10.209Z,89.69
2022-09-18T04:09:11.689Z,89.47
2022-09-18T04:11:13.130Z,89.17
2022-09-18T04:13:14.996Z,89.42
2022-09-18T04:15:16.536Z,89.27
2022-09-18T04:17:17.953Z,89.14
2022-09-18T04:19:19.424Z,88.58
2022-09-18T04:21:20.863Z,88.35
2022-09-18T04:23:22.319Z,88.78
2022-09-18T04:25:23.817Z,88.86
2022-09-18T04:27:25.307Z,88.78
2022-09-18T04:29:26.819Z,89.38
2022-09-18T04:31:28.521Z,89.02
2022-09-18T04:33:30.038Z,89.59
2022-09-18T04:35:31.757Z,89.43
2022-09-18T04:37:33.216Z,89.53
2022-09-18T04:39:35.746Z,90.04
2022-09-18T04:41:37.152Z,90.12
2022-09-18T04:43:38.614Z,90.21
2022-09-18T04:45:40.065Z,90.44
2022-09-18T04:47:41.552Z,90.17
2022-09-18T04:49:42.996Z,91.16
2022-09-18T04:51:44.831Z,91.15
2022-09-18T04:53:46.511Z,91.47
2022-09-18T04:55:48.715Z,91.28
2022-09-18T04:57:53.816Z,91.55
2022-09-18T04:59:56.037Z,91.70
2022-09-18T05:01:57.534Z,91.92
2022-09-18T05:03:59.002Z,92.43
2022-09-18T05:06:00.462Z,91.59
2022-09-18T05:08:03.213Z,92.36
2022-09-18T05:10:05.396Z,92.75
2022-09-18T05:12:07.088Z,91.84
2022-09-18T05:14:08.711Z,92.36
2022-09-18T05:16:10.179Z,92.89
2022-09-18T05:18:12.855Z,92.75
2022-09-18T05:20:15.054Z,92.68
2022-09-18T05:22:16.543Z,92.91
2022-09-18T05:24:18.061Z,93.48
2022-09-18T05:26:19.517Z,92.56
2022-09-18T05:28:21.025Z,92.96
2022-09-18T05:30:23.504Z,93.33
2022-09-18T05:32:24.958Z,93.60
2022-09-18T05:34:26.450Z,93.70
2022-09-18T05:36:27.911Z,93.17
2022-09-18T05:38:29.363Z,92.91
2022-09-18T05:40:37.339Z,92.88
2022-09-18T05:42:45.979Z,93.48
2022-09-18T05:44:47.425Z,92.93
2022-09-18T05:46:48.978Z,93.54
2022-09-18T05:48:50.542Z,93.42
2022-09-18T05:50:52.113Z,92.86
2022-09-18T05:52:58.634Z,93.90
2022-09-18T05:55:00.089Z,92.74
2022-09-18T05:57:01.513Z,93.34
2022-09-18T05:59:02.993Z,93.00
2022-09-18T06:01:04.704Z,93.20
2022-09-18T06:03:09.262Z,93.63
2022-09-18T06:05:10.739Z,92.87
2022-09-18T06:07:15.231Z,92.79
2022-09-18T06:09:16.794Z,92.66
2022-09-18T06:11:18.221Z,92.71
2022-09-18T06:13:19.675Z,92.19
2022-09-18T06:15:21.072Z,92.57
2022-09-18T06:17:22.633Z,92.33
2022-09-18T06:19:24.133Z,92.39
2022-09-18T06:21:25.559Z,92.51
2022-09-18T06:23:28.909Z,92.42
2022-09-18T06:25:31.334Z,92.28
2022-09-18T06:27:33.579Z,92.55
2022-09-18T06:29:35.040Z,92.44
2022-09-18T06:31:36.534Z,92.37
2022-09-18T06:33:38.109Z,93.12
2022-09-18T06:35:40.097Z,92.88
2022-09-18T06:37:41.547Z,93.11
2022-09-18T06:39:43.652Z,93.10
2022-09-18T06:41:45.105Z,93.83
2022-09-18T06:43:50.141Z,93.64
2022-09-18T06:45:53.803Z,93.58
2022-09-18T06:47:55.340Z,93.93
2022-09-18T06:49:56.766Z,93.42
2022-09-18T06:51:58.223Z,92.67
2022-09-18T06:53:59.647Z,92.36
2022-09-18T06:56:03.382Z,92.85
2022-09-18T06:58:04.804Z,92.58
2022-09-18T07:00:07.112Z,91.67
2022-09-18T07:02:19.273Z,91.99
2022-09-18T07:04:21.112Z,90.86
2022-09-18T07:06:22.739Z,90.53
2022-09-18T07:08:24.252Z,90.59
2022-09-18T07:10:27.215Z,90.30
2022-09-18T07:12:29.353Z,89.92
2022-09-18T07:14:30.981Z,89.79
2022-09-18T07:16:32.580Z,89.87
2022-09-18T07:18:34.866Z,89.95
2022-09-18T07:20:36.340Z,89.36
2022-09-18T07:22:38.164Z,89.14
2022-09-18T07:24:39.588Z,89.03
2022-09-18T07:26:40.999Z,89.24
2022-09-18T07:28:42.487Z,89.36
2022-09-18T07:30:44.076Z,89.75
2022-09-18T07:32:45.662Z,90.19
2022-09-18T07:34:47.114Z,90.25
2022-09-18T07:36:51.413Z,90.76
2022-09-18T07:38:52.854Z,90.74
2022-09-18T07:40:54.798Z,91.04
2022-09-18T07:43:01.287Z,90.49
2022-09-18T07:45:02.905Z,90.51
2022-09-18T07:47:04.637Z,90.69
2022-09-18T07:49:06.063Z,90.21
2022-09-18T07:51:07.785Z,90.42
2022-09-18T07:53:10.074Z,90.68
2022-09-18T07:55:11.528Z,90.19
2022-09-18T07:57:13.282Z,90.06
2022-09-18T07:59:14.783Z,89.70
2022-09-18T08:01:16.672Z,89.65
2022-09-18T08:03:18.615Z,89.87
2022-09-18T08:05:20.187Z,89.39
2022-09-18T08:07:21.612Z,89.60
2022-09-18T08:09:23.053Z,89.71
2022-09-18T08:11:24.638Z,89.49
2022-09-18T08:13:26.303Z,89.36
2022-09-18T08:15:27.768Z,88.83
2022-09-18T08:17:29.245Z,88.68
2022-09-18T08:19:31.062Z,88.25
2022-09-18T08:21:32.492Z,88.35
2022-09-18T08:23:34.949Z,88.37
2022-09-18T08:25:37.255Z,87.43
2022-09-18T08:27:40.078Z,87.82
2022-09-18T08:29:42.541Z,87.90
2022-09-18T08:31:44.045Z,87.76
2022-09-18T08:33:45.646Z,86.75
2022-09-18T08:35:47.107Z,85.49
2022-09-18T08:37:49.157Z,85.93
2022-09-18T08:39:50.595Z,85.63
2022-09-18T08:42:26.049Z,85.80
2022-09-18T08:44:30.322Z,85.21
2022-09-18T08:46:45.409Z,84.21
2022-09-18T08:49:06.071Z,83.39
2022-09-18T08:51:23.419Z,81.45
2022-09-18T08:53:38.559Z,80.57
2022-09-18T08:55:44.898Z,79.91
2022-09-18T08:57:49.658Z,80.30
2022-09-18T09:00:13.021Z,80.90
2022-09-18T09:02:31.132Z,80.97
2022-09-18T09:04:32.779Z,81.33
2022-09-18T09:06:43.264Z,81.48
2022-09-18T09:08:57.648Z,81.23
2022-09-18T09:11:05.101Z,82.05
2022-09-18T09:13:44.173Z,83.03
2022-09-18T09:16:26.958Z,82.30
2022-09-18T09:18:28.387Z,81.40
2022-09-18T09:20:36.936Z,80.98
2022-09-18T09:22:41.090Z,81.39
2022-09-18T09:24:48.578Z,82.03
2022-09-18T09:26:54.708Z,82.56
2022-09-18T09:29:01.494Z,82.77
2022-09-18T09:31:07.660Z,81.80
2022-09-18T09:33:27.846Z,81.45
2022-09-18T09:35:35.377Z,81.40
2022-09-18T09:37:42.388Z,80.82
2022-09-18T09:40:04.924Z,80.22
2022-09-18T09:42:16.163Z,78.99
2022-09-18T09:44:37.182Z,78.02
2022-09-18T09:46:55.815Z,78.63
2022-09-18T09:49:05.425Z,78.01
2022-09-18T09:51:12.672Z,77.20
2022-09-18T09:53:14.147Z,77.43
2022-09-18T09:55:20.472Z,78.22
2022-09-18T09:58:00.927Z,77.96
2022-09-18T10:00:09.692Z,77.69
2022-09-18T10:02:37.737Z,77.78
2022-09-18T10:04:52.722Z,77.16
2022-09-18T10:07:12.696Z,76.84
2022-09-18T10:09:26.270Z,75.48
2022-09-18T10:11:28.075Z,74.29
2022-09-18T10:13:35.954Z,73.92
2022-09-18T10:15:45.578Z,74.73
2022-09-18T10:17:51.067Z,74.51
2022-09-18T10:19:53.474Z,74.61
2022-09-18T10:21:56.295Z,74.53
2022-09-18T10:24:30.964Z,67.93
2022-09-18T10:26:42.953Z,68.35
2022-09-18T10:28:44.388Z,70.06
2022-09-18T10:31:12.134Z,72.60
2022-09-18T10:33:35.693Z,75.41
2022-09-18T10:35:44.938Z,77.52
2022-09-18T10:37:46.534Z,78.78
2022-09-18T10:39:50.824Z,79.72
2022-09-18T10:42:00.090Z,79.56
2022-09-18T10:44:28.368Z,77.74
2022-09-18T10:46:33.584Z,79.72
2022-09-18T10:48:36.373Z,79.22
2022-09-18T10:50:37.810Z,78.45
2022-09-18T10:52:41.327Z,78.52
2022-09-18T10:55:02.851Z,79.30
2022-09-18T10:57:28.164Z,80.99
2022-09-18T10:59:29.611Z,82.16
2022-09-18T11:01:31.164Z,83.86
2022-09-18T11:03:46.096Z,83.71
2022-09-18T11:05:57.971Z,82.91
2022-09-18T11:08:03.969Z,83.51
2022-09-18T11:10:09.252Z,80.14
2022-09-18T11:12:20.925Z,78.17
2022-09-18T11:14:25.375Z,77.90
2022-09-18T11:16:51.541Z,76.03
2022-09-18T11:19:07.705Z,74.97
2022-09-18T11:21:09.420Z,74.45
2022-09-18T11:23:30.333Z,73.49
2022-09-18T11:25:31.817Z,70.46
2022-09-18T11:27:49.133Z,69.74
2022-09-18T11:29:50.595Z,70.05
2022-09-18T11:32:17.852Z,71.96
2022-09-18T11:34:24.990Z,73.48
2022-09-18T11:36:30.150Z,74.35
2022-09-18T11:38:32.715Z,74.77
2022-09-18T11:40:45.090Z,75.78
2022-09-18T11:42:50.721Z,75.90
2022-09-18T11:44:52.968Z,75.16
2022-09-18T11:47:04.336Z,73.94
2022-09-18T11:49:12.981Z,72.96
2022-09-18T11:51:26.727Z,69.59
2022-09-18T11:54:02.205Z,68.79
2022-09-18T11:56:28.095Z,68.58
2022-09-18T11:58:43.772Z,68.93
2022-09-18T12:00:54.467Z,68.49
2022-09-18T12:03:31.588Z,67.91
2022-09-18T12:05:38.831Z,65.95
2022-09-18T12:07:47.262Z,65.52
2022-09-18T12:10:11.130Z,64.29
2022-09-18T12:12:28.265Z,64.77
2022-09-18T12:14:45.761Z,60.87
2022-09-18T12:16:59.032Z,66.56
2022-09-18T12:19:24.089Z,68.37
2022-09-18T12:21:39.114Z,70.09
2022-09-18T12:23:40.962Z,72.26
2022-09-18T12:26:00.723Z,72.18
2022-09-18T12:28:08.301Z,73.55
2022-09-18T12:30:11.299Z,74.43
2022-09-18T12:32:27.244Z,74.40
2022-09-18T12:34:44.074Z,75.80
2022-09-18T12:36:57.516Z,76.47
2022-09-18T12:39:35.199Z,76.34
2022-09-18T12:42:04.525Z,77.51
2022-09-18T12:44:14.838Z,78.91
2022-09-18T12:46:42.716Z,79.24
2022-09-18T12:49:21.186Z,80.28
2022-09-18T12:51:40.979Z,80.71
2022-09-18T12:53:57.790Z,77.48
2022-09-18T12:56:17.833Z,78.45
2022-09-18T12:58:57.831Z,79.60
2022-09-18T13:01:07.992Z,80.36
2022-09-18T13:03:26.723Z,81.91
2022-09-18T13:05:32.673Z,82.01
2022-09-18T13:07:57.180Z,81.85
2022-09-18T13:10:18.660Z,81.64
2022-09-18T13:12:28.642Z,80.48
2022-09-18T13:14:39.946Z,80.42
2022-09-18T13:16:50.213Z,79.08
2022-09-18T13:18:58.047Z,79.14
2022-09-18T13:21:03.287Z,77.77
2022-09-18T13:23:06.977Z,77.78
2022-09-18T13:25:23.222Z,78.04
2022-09-18T13:27:26.306Z,78.88
2022-09-18T13:29:52.817Z,79.75
2022-09-18T13:31:54.493Z,78.04
2022-09-18T13:34:01.862Z,76.33
2022-09-18T13:36:03.300Z,75.94
2022-09-18T13:38:18.140Z,75.70
2022-09-18T13:40:44.481Z,68.70
2022-09-18T13:42:46.086Z,69.89
2022-09-18T13:44:49.629Z,66.47
2022-09-18T13:46:55.175Z,67.10
2022-09-18T13:48:59.606Z,67.54
2022-09-18T13:51:04.390Z,66.69
2022-09-18T13:53:06.345Z,65.28
2022-09-18T13:55:13.546Z,65.40
2022-09-18T13:57:19.667Z,65.54
2022-09-18T13:59:45.521Z,65.94
2022-09-18T14:01:50.057Z,65.72
2022-09-18T14:03:51.516Z,66.35
2022-09-18T14:05:53.961Z,67.05
2022-09-18T14:08:07.653Z,68.53
2022-09-18T14:10:31.350Z,69.38
2022-09-18T14:12:35.115Z,69.08
2022-09-18T14:14:36.689Z,68.77
2022-09-18T14:16:43.467Z,68.20
2022-09-18T14:18:46.557Z,68.44
2022-09-18T14:20:55.126Z,68.02
2022-09-18T14:22:56.562Z,68.28
2022-09-18T14:25:04.958Z,68.13
2022-09-18T14:27:34.508Z,68.33
2022-09-18T14:29:36.138Z,68.18
2022-09-18T14:31:44.976Z,67.40
2022-09-18T14:33:46.762Z,67.12
2022-09-18T14:36:05.814Z,65.87
2022-09-18T14:38:24.745Z,66.35
2022-09-18T14:40:29.766Z,66.53
2022-09-18T14:42:33.499Z,65.00
2022-09-18T14:44:37.217Z,64.38
2022-09-18T14:46:52.958Z,63.32
2022-09-18T14:48:55.224Z,65.15
2022-09-18T14:51:04.555Z,64.44
2022-09-18T14:53:24.726Z,64.95
2022-09-18T14:55:33.937Z,65.39
2022-09-18T14:57:45.000Z,65.30
2022-09-18T14:59:52.224Z,64.42
2022-09-18T15:01:53.759Z,64.45
2022-09-18T15:03:58.108Z,64.83
2022-09-18T15:06:26.907Z,64.14
2022-09-18T15:08:28.420Z,64.46
2022-09-18T15:10:31.810Z,64.97
2022-09-18T15:12:35.600Z,67.40
2022-09-18T15:14:44.131Z,68.35
2022-09-18T15:17:00.348Z,68.90
2022-09-18T15:19:01.853Z,67.91
2022-09-18T15:21:03.435Z,68.34
2022-09-18T15:23:20.420Z,67.59
2022-09-18T15:25:30.747Z,69.16
2022-09-18T15:27:32.712Z,70.04
2022-09-18T15:29:46.324Z,71.39
2022-09-18T15:31:48.401Z,72.57
2022-09-18T15:34:15.541Z,73.36
2022-09-18T15:36:29.267Z,73.37
2022-09-18T15:38:41.834Z,74.12
2022-09-18T15:40:44.368Z,74.10
2022-09-18T15:42:58.446Z,73.73
2022-09-18T15:44:59.899Z,75.14
2022-09-18T15:47:42.775Z,76.80
2022-09-18T15:49:44.233Z,78.10
2022-09-18T15:51:45.684Z,78.68
2022-09-18T15:54:06.049Z,78.73
2022-09-18T15:56:18.043Z,79.66
2022-09-18T15:58:26.379Z,80.49
2022-09-18T16:00:34.100Z,80.92
2022-09-18T16:02:37.629Z,81.10
2022-09-18T16:04:39.264Z,81.16
2022-09-18T16:06:52.750Z,81.43
2022-09-18T16:08:56.371Z,82.09
2022-09-18T16:10:59.841Z,82.57
2022-09-18T16:13:13.582Z,82.62
2022-09-18T16:15:23.446Z,82.69
2022-09-18T16:18:12.643Z,82.55
2022-09-18T16:20:31.358Z,81.98
2022-09-18T16:22:40.782Z,81.84
2022-09-18T16:24:42.305Z,81.48
2022-09-18T16:26:44.232Z,80.56
2022-09-18T16:29:18.842Z,80.94
2022-09-18T16:31:22.670Z,81.41
2022-09-18T16:33:30.201Z,81.40
2022-09-18T16:35:31.728Z,80.83
2022-09-18T16:37:37.704Z,79.08
2022-09-18T16:39:40.150Z,78.90
2022-09-18T16:41:42.501Z,79.33
2022-09-18T16:43:43.955Z,79.49
2022-09-18T16:45:47.717Z,78.03
2022-09-18T16:47:50.014Z,77.72
2022-09-18T16:49:51.466Z,77.31
2022-09-18T16:51:55.565Z,77.62
2022-09-18T16:53:57.162Z,77.45
2022-09-18T16:55:59.005Z,77.57
2022-09-18T16:58:00.882Z,77.89
2022-09-18T17:00:07.007Z,77.99
2022-09-18T17:02:10.107Z,78.14
2022-09-18T17:04:11.528Z,78.53
2022-09-18T17:06:17.071Z,78.75
2022-09-18T17:08:20.198Z,79.08
2022-09-18T17:10:21.641Z,79.17
2022-09-18T17:12:23.327Z,78.96
2022-09-18T17:14:25.873Z,79.65
2022-09-18T17:16:43.753Z,80.43
2022-09-18T17:18:46.139Z,80.56
2022-09-18T17:20:47.637Z,80.46
2022-09-18T17:22:50.628Z,80.44
2022-09-18T17:24:52.228Z,80.69
2022-09-18T17:26:54.067Z,80.89
2022-09-18T17:28:55.542Z,80.64
2022-09-18T17:30:57.782Z,81.07
2022-09-18T17:32:59.260Z,80.91
2022-09-18T17:35:00.895Z,80.62
2022-09-18T17:37:02.639Z,80.61
2022-09-18T17:39:04.862Z,80.66
2022-09-18T17:41:08.775Z,80.73
2022-09-18T17:43:10.212Z,80.60
2022-09-18T17:45:11.661Z,80.85
2022-09-18T17:47:13.126Z,80.49
2022-09-18T17:49:14.552Z,80.82
2022-09-18T17:51:18.549Z,80.42
2022-09-18T17:53:20.399Z,80.15
2022-09-18T17:55:21.879Z,80.42
2022-09-18T17:57:23.367Z,80.85
2022-09-18T17:59:25.483Z,81.72
2022-09-18T18:01:28.569Z,82.33
2022-09-18T18:03:30.046Z,83.27
2022-09-18T18:05:31.579Z,83.54
2022-09-18T18:07:33.021Z,82.87
2022-09-18T18:09:37.739Z,83.15
2022-09-18T18:11:39.241Z,83.53
2022-09-18T18:13:42.689Z,83.60
2022-09-18T18:15:44.270Z,84.00
2022-09-18T18:17:46.831Z,83.74
2022-09-18T18:19:49.653Z,83.78
2022-09-18T18:21:51.169Z,83.79
2022-09-18T18:24:00.210Z,84.19
2022-09-18T18:26:04.356Z,84.34
2022-09-18T18:28:09.464Z,83.71
2022-09-18T18:30:12.773Z,83.81
2022-09-18T18:32:14.451Z,83.83
2022-09-18T18:34:21.270Z,83.69
2022-09-18T18:36:28.137Z,83.72
2022-09-18T18:38:30.024Z,84.01
2022-09-18T18:40:31.505Z,85.03
2022-09-18T18:42:32.968Z,84.83
2022-09-18T18:44:34.666Z,81.31
2022-09-18T18:46:37.300Z,85.58
2022-09-18T18:48:40.257Z,86.91
2022-09-18T18:50:42.671Z,88.54
2022-09-18T18:52:48.780Z,89.53
2022-09-18T18:54:50.299Z,90.52
2022-09-18T18:56:51.768Z,91.66
2022-09-18T18:58:58.219Z,92.10
2022-09-18T19:01:13.184Z,92.48
2022-09-18T19:03:14.954Z,93.29
2022-09-18T19:05:22.876Z,93.76
2022-09-18T19:07:25.627Z,94.32
2022-09-18T19:09:29.543Z,94.75
2022-09-18T19:11:32.872Z,94.71
2022-09-18T19:13:44.867Z,95.30
2022-09-18T19:15:46.289Z,95.40
2022-09-18T19:17:50.216Z,95.93
2022-09-18T19:19:52.582Z,95.19
2022-09-18T19:21:55.488Z,95.47
2022-09-18T19:23:59.271Z,95.13
2022-09-18T19:26:01.050Z,95.41
2022-09-18T19:28:02.659Z,95.25
2022-09-18T19:30:04.377Z,95.21
2022-09-18T19:32:06.819Z,95.26
2022-09-18T19:34:13.525Z,95.56
2022-09-18T19:36:15.073Z,95.40
2022-09-18T19:38:18.828Z,95.41
2022-09-18T19:40:20.328Z,95.85
2022-09-18T19:42:27.927Z,95.48
2022-09-18T19:44:41.653Z,95.75
2022-09-18T19:46:43.838Z,95.86
2022-09-18T19:48:45.596Z,96.20
2022-09-18T19:50:47.254Z,96.52
2022-09-18T19:52:51.428Z,97.00
2022-09-18T19:54:54.503Z,97.36
2022-09-18T19:56:55.975Z,97.38
2022-09-18T19:58:57.392Z,97.47
2022-09-18T20:01:01.424Z,97.23
2022-09-18T20:03:02.962Z,98.16
2022-09-18T20:05:05.926Z,98.54
2022-09-18T20:07:07.986Z,98.48
2022-09-18T20:09:10.329Z,98.55
2022-09-18T20:11:11.759Z,98.84
2022-09-18T20:13:13.263Z,99.10
2022-09-18T20:15:14.850Z,98.71
2022-09-18T20:17:16.320Z,98.42
2022-09-18T20:19:17.827Z,98.80
2022-09-18T20:21:19.693Z,98.99
2022-09-18T20:23:21.331Z,99.05
2022-09-18T20:25:25.026Z,98.78
2022-09-18T20:27:26.463Z,99.35
2022-09-18T20:29:28.924Z,99.11
2022-09-18T20:31:30.463Z,99.18
2022-09-18T20:33:32.509Z,98.94
2022-09-18T20:35:37.370Z,98.96
2022-09-18T20:37:38.844Z,98.97
2022-09-18T20:39:40.364Z,98.99
2022-09-18T20:41:47.347Z,98.62
2022-09-18T20:43:53.154Z,98.46
2022-09-18T20:46:02.993Z,99.25
2022-09-18T20:48:06.404Z,98.91
2022-09-18T20:50:11.554Z,98.66
2022-09-18T20:52:14.657Z,99.33
2022-09-18T20:54:19.267Z,98.91
2022-09-18T20:56:21.646Z,99.08
2022-09-18T20:58:23.077Z,99.29
2022-09-18T21:00:24.847Z,99.75
2022-09-18T21:02:26.469Z,99.12
2022-09-18T21:04:29.010Z,99.85
2022-09-18T21:06:33.303Z,99.62
2022-09-18T21:08:34.744Z,99.76
2022-09-18T21:10:46.528Z,99.67
2022-09-18T21:12:48.590Z,99.68
2022-09-18T21:14:50.727Z,99.77
2022-09-18T21:16:52.845Z,99.37
2022-09-18T21:18:57.623Z,99.30
2022-09-18T21:21:04.102Z,99.38
2022-09-18T21:23:23.932Z,99.64
2022-09-18T21:25:25.491Z,99.63
2022-09-18T21:27:26.966Z,99.20
2022-09-18T21:29:29.906Z,99.79
2022-09-18T21:31:33.487Z,99.32
2022-09-18T21:33:37.284Z,99.57
2022-09-18T21:35:42.432Z,99.87
2022-09-18T21:37:43.918Z,99.12
2022-09-18T21:39:45.366Z,99.26
2022-09-18T21:41:47.534Z,99.26
2022-09-18T21:43:50.626Z,99.64
2022-09-18T21:45:52.235Z,99.35
2022-09-18T21:47:53.662Z,99.48
2022-09-18T21:49:56.642Z,99.11
2022-09-18T21:52:00.452Z,98.83
2022-09-18T21:54:05.471Z,98.74
2022-09-18T21:56:18.216Z,98.78
2022-09-18T21:58:20.282Z,98.99
2022-09-18T22:00:21.723Z,98.56
2022-09-18T22:02:23.185Z,99.20
2022-09-18T22:04:27.610Z,98.48
2022-09-18T22:06:41.666Z,99.19
2022-09-18T22:08:43.478Z,98.69
2022-09-18T22:10:45.154Z,98.96
2022-09-18T22:12:46.583Z,98.93
2022-09-18T22:14:49.116Z,99.04
2022-09-18T22:16:53.160Z,98.65
2022-09-18T22:18:55.254Z,99.19
2022-09-18T22:20:58.013Z,99.31
2022-09-18T22:22:59.443Z,98.83
2022-09-18T22:25:03.186Z,98.68
2022-09-18T22:27:10.513Z,98.90
2022-09-18T22:29:20.523Z,98.48
2022-09-18T22:31:23.671Z,98.61
2022-09-18T22:33:25.157Z,98.56
2022-09-18T22:35:26.606Z,98.59
2022-09-18T22:37:28.905Z,98.43
2022-09-18T22:39:30.789Z,98.94
2022-09-18T22:41:32.263Z,99.09
2022-09-18T22:43:35.315Z,99.02
2022-09-18T22:45:36.750Z,98.32
2022-09-18T22:47:38.258Z,99.48
2022-09-18T22:49:39.671Z,99.25
2022-09-18T22:51:41.649Z,98.94
2022-09-18T22:53:58.995Z,99.40
2022-09-18T22:56:12.406Z,98.65
2022-09-18T22:58:14.985Z,98.71
2022-09-18T23:00:16.634Z,99.09
2022-09-18T23:02:19.312Z,99.44
2022-09-18T23:04:23.589Z,99.24
2022-09-18T23:06:26.723Z,99.50
2022-09-18T23:08:31.840Z,99.03
2022-09-18T23:10:33.310Z,98.84
2022-09-18T23:12:34.841Z,99.03
2022-09-18T23:14:36.295Z,99.15
2022-09-18T23:16:38.117Z,99.17
2022-09-18T23:18:40.854Z,99.36
2022-09-18T23:20:43.016Z,99.58
2022-09-18T23:22:44.456Z,98.36
2022-09-18T23:24:47.074Z,97.73
2022-09-18T23:26:50.040Z,98.23
2022-09-18T23:28:53.680Z,97.79
2022-09-18T23:30:55.186Z,97.84
2022-09-18T23:32:56.603Z,97.99
2022-09-18T23:34:58.022Z,98.31
2022-09-18T23:37:00.731Z,98.90
2022-09-18T23:39:05.726Z,98.92
2022-09-18T23:41:12.762Z,99.00
2022-09-18T23:43:14.439Z,98.43
2022-09-18T23:45:16.003Z,99.00
2022-09-18T23:47:17.514Z,98.51
2022-09-18T23:49:23.359Z,99.05
2022-09-18T23:51:28.261Z,99.27
2022-09-18T23:53:37.956Z,98.97
2022-09-18T23:55:39.678Z,99.05
2022-09-18T23:57:41.100Z,98.69
2022-09-18T23:59:42.571Z,99.24
